createdAt,value
2023-11-24T00:01:31.013Z,91903.17
2023-11-24T00:09:57.136Z,91899.22
2023-11-24T00:18:22.734Z,91896.31
2023-11-24T00:26:47.133Z,91898.41
2023-11-24T00:35:12.928Z,91891.95
2023-11-24T00:43:38.441Z,91880.08
2023-11-24T00:52:04.338Z,91863.17
2023-11-24T01:00:27.884Z,91835.60
2023-11-24T01:08:51.653Z,91792.08
2023-11-24T01:17:18.447Z,91756.23
2023-11-24T01:25:42.800Z,91751.80
2023-11-24T01:34:10.985Z,91763.45
2023-11-24T01:42:39.733Z,91773.91
2023-11-24T01:51:03.488Z,91778.86
2023-11-24T01:59:27.036Z,91788.53
2023-11-24T02:07:52.955Z,91800.28
2023-11-24T02:16:17.004Z,91810.48
2023-11-24T02:24:41.035Z,91830.95
2023-11-24T02:33:12.052Z,91844.44
2023-11-24T02:41:36.218Z,91863.94
2023-11-24T02:49:59.437Z,91866.95
2023-11-24T02:58:26.541Z,91876.27
2023-11-24T03:06:50.445Z,91886.69
2023-11-24T03:15:18.680Z,91907.08
2023-11-24T03:23:43.194Z,91931.59
2023-11-24T03:32:08.275Z,91926.49
2023-11-24T03:40:32.871Z,91923.13
2023-11-24T03:49:01.233Z,91884.61
2023-11-24T03:57:29.783Z,91850.52
2023-11-24T04:05:55.025Z,91811.36
2023-11-24T04:14:18.655Z,91811.83
2023-11-24T04:22:43.106Z,91795.70
2023-11-24T04:31:10.194Z,91773.95
2023-11-24T04:39:35.570Z,91751.91
2023-11-24T04:48:08.909Z,91719.05
2023-11-24T04:56:34.714Z,91695.66
2023-11-24T05:04:58.508Z,91670.92
2023-11-24T05:13:23.601Z,91608.00
2023-11-24T05:21:51.014Z,91520.23
2023-11-24T05:30:14.976Z,91474.70
2023-11-24T05:38:41.032Z,91429.60
2023-11-24T05:47:06.777Z,91367.13
2023-11-24T05:55:32.140Z,91277.05
2023-11-24T06:03:56.759Z,91208.06
2023-11-24T06:12:23.326Z,91176.21
2023-11-24T06:20:48.979Z,91168.60
2023-11-24T06:29:13.702Z,91189.38
2023-11-24T06:37:39.627Z,91237.98
2023-11-24T06:46:04.522Z,91261.82
2023-11-24T06:54:31.126Z,91275.50
2023-11-24T07:02:55.768Z,91308.48
2023-11-24T07:11:22.188Z,91333.79
2023-11-24T07:19:46.204Z,91364.29
2023-11-24T07:28:12.867Z,91372.91
2023-11-24T07:36:36.781Z,91396.34
2023-11-24T07:45:26.833Z,91406.73
2023-11-24T07:53:50.508Z,91449.54
2023-11-24T08:02:17.007Z,91504.39
2023-11-24T08:10:43.311Z,91489.80
2023-11-24T08:19:09.511Z,91483.02
2023-11-24T08:27:34.530Z,91470.86
2023-11-24T08:35:58.580Z,91488.52
2023-11-24T08:44:25.994Z,91517.33
2023-11-24T08:52:50.944Z,91535.76
2023-11-24T09:01:19.816Z,91529.11
2023-11-24T09:09:44.190Z,91542.88
2023-11-24T09:18:10.721Z,91564.16
2023-11-24T09:26:38.057Z,91568.48
2023-11-24T09:35:07.226Z,91590.55
2023-11-24T09:43:38.688Z,91615.52
2023-11-24T09:52:05.332Z,91646.80
2023-11-24T10:00:35.029Z,91699.04
2023-11-24T10:09:00.176Z,91766.05
2023-11-24T10:17:27.311Z,91762.83
2023-11-24T10:25:52.744Z,91711.77
2023-11-24T10:34:17.490Z,91662.24
2023-11-24T10:42:50.716Z,91620.73
2023-11-24T10:51:24.685Z,91591.69
2023-11-24T10:59:52.470Z,91553.20
2023-11-24T11:09:17.909Z,91547.19
2023-11-24T11:17:43.040Z,91570.86
2023-11-24T11:26:45.314Z,91610.45
2023-11-24T11:35:12.101Z,91601.45
2023-11-24T11:43:53.327Z,91575.95
2023-11-24T11:52:17.848Z,91500.77
2023-11-24T12:00:41.865Z,91460.05
2023-11-24T12:09:07.029Z,91445.02
2023-11-24T12:17:32.340Z,91426.60
2023-11-24T12:25:57.847Z,91427.64
2023-11-24T12:34:45.167Z,91488.88
2023-11-24T12:43:20.241Z,91603.90
2023-11-24T12:51:49.355Z,91627.70
2023-11-24T13:00:18.780Z,91553.25
2023-11-24T13:08:45.248Z,91466.97
2023-11-24T13:17:09.133Z,91408.23
2023-11-24T13:25:39.994Z,91405.27
2023-11-24T13:34:05.998Z,91334.21
2023-11-24T13:42:31.704Z,91077.37
2023-11-24T13:50:59.462Z,90833.83
2023-11-24T13:59:26.986Z,90679.52
2023-11-24T14:07:52.577Z,90594.42
2023-11-24T14:16:17.717Z,90562.83
2023-11-24T14:24:45.448Z,90551.48
2023-11-24T14:33:13.694Z,90515.77
2023-11-24T14:41:37.722Z,90495.40
2023-11-24T14:50:06.038Z,90479.61
2023-11-24T14:58:30.609Z,90440.00
2023-11-24T15:06:59.227Z,90425.70
2023-11-24T15:15:26.259Z,90426.63
2023-11-24T15:23:58.944Z,90408.64
2023-11-24T15:32:22.578Z,90364.66
2023-11-24T15:40:52.492Z,90330.59
2023-11-24T15:49:17.898Z,90314.36
2023-11-24T15:57:42.183Z,90293.51
2023-11-24T16:06:09.300Z,90251.04
2023-11-24T16:14:34.947Z,90231.93
2023-11-24T16:22:59.757Z,90259.81
2023-11-24T16:31:24.261Z,90287.05
2023-11-24T16:39:47.703Z,90283.04
2023-11-24T16:48:11.796Z,90282.92
2023-11-24T16:56:34.915Z,90310.70
2023-11-24T17:05:01.069Z,90331.10
2023-11-24T17:13:25.321Z,90323.69
2023-11-24T17:21:49.422Z,90317.60
2023-11-24T17:30:16.972Z,90330.38
2023-11-24T17:38:44.306Z,90341.81
2023-11-24T17:47:08.956Z,90314.62
2023-11-24T17:55:35.474Z,90231.99
2023-11-24T18:04:02.796Z,90104.94
2023-11-24T18:12:27.803Z,90011.00
2023-11-24T18:20:51.022Z,89940.83
2023-11-24T18:29:27.564Z,89907.15
2023-11-24T18:38:10.507Z,89852.27
2023-11-24T18:46:33.983Z,89744.83
2023-11-24T18:54:57.709Z,89680.77
2023-11-24T19:03:21.424Z,89669.02
2023-11-24T19:11:50.008Z,89674.51
2023-11-24T19:20:13.832Z,89663.02
2023-11-24T19:28:40.756Z,89668.71
2023-11-24T19:37:06.430Z,89702.31
2023-11-24T19:45:30.163Z,89757.61
2023-11-24T19:53:54.452Z,89808.55
2023-11-24T20:02:19.654Z,89838.54
2023-11-24T20:10:44.454Z,89856.37
2023-11-24T20:19:10.317Z,89853.48
2023-11-24T20:27:34.513Z,89853.23
2023-11-24T20:35:58.623Z,89870.50
2023-11-24T20:44:23.077Z,89902.67
2023-11-24T20:52:49.099Z,89929.09
2023-11-24T21:01:15.795Z,89914.03
2023-11-24T21:09:42.761Z,89856.58
2023-11-24T21:18:09.482Z,89803.97
2023-11-24T21:26:37.086Z,89780.40
2023-11-24T21:35:00.652Z,89787.29
2023-11-24T21:43:23.868Z,89806.65
2023-11-24T21:51:47.505Z,89824.83
2023-11-24T22:00:18.704Z,89835.87
2023-11-24T22:08:42.733Z,89834.59
2023-11-24T22:17:08.945Z,89842.13
2023-11-24T22:25:35.869Z,89887.46
2023-11-24T22:33:59.947Z,89942.30
2023-11-24T22:42:23.494Z,89997.25
2023-11-24T22:50:52.727Z,90051.89
2023-11-24T22:59:16.339Z,90111.20
2023-11-24T23:07:43.095Z,90144.19
2023-11-24T23:16:08.653Z,90153.77
2023-11-24T23:24:35.216Z,90166.69
2023-11-24T23:33:10.395Z,90201.18
2023-11-24T23:41:42.683Z,90241.92
2023-11-24T23:50:10.886Z,90282.35
2023-11-24T23:58:37.923Z,90299.10
